sensor_id;sensor_type;location;lat;lon;timestamp;P1;durP1;ratioP1;P2;durP2;ratioP2
8478;SDS011;4276;49.354;6.804;2023-06-22T00:01:18;8.35;;;7.60;;
8478;SDS011;4276;49.354;6.804;2023-06-22T00:03:45;9.45;;;8.55;;
8478;SDS011;4276;49.354;6.804;2023-06-22T00:06:12;8.18;;;7.50;;
8478;SDS011;4276;49.354;6.804;2023-06-22T00:08:39;9.27;;;8.52;;
8478;SDS011;4276;49.354;6.804;2023-06-22T00:11:06;8.55;;;7.72;;
8478;SDS011;4276;49.354;6.804;2023-06-22T00:13:33;8.90;;;8.10;;
8478;SDS011;4276;49.354;6.804;2023-06-22T00:15:59;8.55;;;7.85;;
8478;SDS011;4276;49.354;6.804;2023-06-22T00:18:26;8.00;;;7.35;;
8478;SDS011;4276;49.354;6.804;2023-06-22T00:20:57;8.10;;;7.40;;
8478;SDS011;4276;49.354;6.804;2023-06-22T00:23:24;8.38;;;7.65;;
8478;SDS011;4276;49.354;6.804;2023-06-22T00:25:51;7.90;;;7.30;;
8478;SDS011;4276;49.354;6.804;2023-06-22T00:28:18;8.30;;;7.60;;
8478;SDS011;4276;49.354;6.804;2023-06-22T00:30:45;8.60;;;7.90;;
8478;SDS011;4276;49.354;6.804;2023-06-22T00:33:12;8.80;;;8.07;;
8478;SDS011;4276;49.354;6.804;2023-06-22T00:35:38;7.95;;;7.38;;
8478;SDS011;4276;49.354;6.804;2023-06-22T00:38:07;7.40;;;6.80;;
8478;SDS011;4276;49.354;6.804;2023-06-22T00:40:34;8.25;;;7.68;;
8478;SDS011;4276;49.354;6.804;2023-06-22T00:43:01;7.63;;;7.03;;
8478;SDS011;4276;49.354;6.804;2023-06-22T00:45:28;7.53;;;6.85;;
8478;SDS011;4276;49.354;6.804;2023-06-22T00:47:56;7.22;;;6.57;;
8478;SDS011;4276;49.354;6.804;2023-06-22T00:50:27;7.75;;;7.10;;
8478;SDS011;4276;49.354;6.804;2023-06-22T00:53:06;8.05;;;7.43;;
8478;SDS011;4276;49.354;6.804;2023-06-22T00:55:36;7.50;;;6.90;;
8478;SDS011;4276;49.354;6.804;2023-06-22T00:58:13;6.60;;;6.20;;
8478;SDS011;4276;49.354;6.804;2023-06-22T01:00:40;7.65;;;7.05;;
8478;SDS011;4276;49.354;6.804;2023-06-22T01:03:07;7.38;;;6.78;;
8478;SDS011;4276;49.354;6.804;2023-06-22T01:05:37;8.05;;;7.28;;
8478;SDS011;4276;49.354;6.804;2023-06-22T01:08:06;7.93;;;7.32;;
8478;SDS011;4276;49.354;6.804;2023-06-22T01:10:53;7.68;;;6.90;;
8478;SDS011;4276;49.354;6.804;2023-06-22T01:13:28;7.97;;;7.38;;
8478;SDS011;4276;49.354;6.804;2023-06-22T01:18:28;8.40;;;7.70;;
8478;SDS011;4276;49.354;6.804;2023-06-22T01:20:56;7.75;;;7.20;;
8478;SDS011;4276;49.354;6.804;2023-06-22T01:23:37;8.13;;;7.35;;
8478;SDS011;4276;49.354;6.804;2023-06-22T01:29:02;7.97;;;7.38;;
8478;SDS011;4276;49.354;6.804;2023-06-22T01:31:30;8.18;;;7.50;;
8478;SDS011;4276;49.354;6.804;2023-06-22T01:34:02;7.38;;;6.88;;
8478;SDS011;4276;49.354;6.804;2023-06-22T01:36:30;7.90;;;7.30;;
8478;SDS011;4276;49.354;6.804;2023-06-22T01:38:58;7.97;;;7.38;;
8478;SDS011;4276;49.354;6.804;2023-06-22T01:41:25;8.45;;;7.85;;
8478;SDS011;4276;49.354;6.804;2023-06-22T01:43:53;8.57;;;7.88;;
8478;SDS011;4276;49.354;6.804;2023-06-22T01:46:20;8.23;;;7.45;;
8478;SDS011;4276;49.354;6.804;2023-06-22T01:48:47;8.68;;;7.93;;
8478;SDS011;4276;49.354;6.804;2023-06-22T01:51:14;8.77;;;8.18;;
8478;SDS011;4276;49.354;6.804;2023-06-22T01:53:41;8.65;;;8.00;;
8478;SDS011;4276;49.354;6.804;2023-06-22T01:56:08;9.27;;;8.57;;
8478;SDS011;4276;49.354;6.804;2023-06-22T01:58:35;8.95;;;8.25;;
8478;SDS011;4276;49.354;6.804;2023-06-22T02:01:11;8.75;;;7.78;;
8478;SDS011;4276;49.354;6.804;2023-06-22T02:03:42;9.23;;;8.52;;
8478;SDS011;4276;49.354;6.804;2023-06-22T02:06:15;9.55;;;8.75;;
8478;SDS011;4276;49.354;6.804;2023-06-22T02:08:47;9.07;;;8.38;;
8478;SDS011;4276;49.354;6.804;2023-06-22T02:11:17;8.85;;;8.18;;
8478;SDS011;4276;49.354;6.804;2023-06-22T02:13:45;8.82;;;8.23;;
8478;SDS011;4276;49.354;6.804;2023-06-22T02:16:12;8.55;;;7.95;;
8478;SDS011;4276;49.354;6.804;2023-06-22T02:18:45;8.93;;;8.32;;
8478;SDS011;4276;49.354;6.804;2023-06-22T02:21:12;8.60;;;7.90;;
8478;SDS011;4276;49.354;6.804;2023-06-22T02:23:39;8.55;;;7.82;;
8478;SDS011;4276;49.354;6.804;2023-06-22T02:26:05;8.48;;;7.78;;
8478;SDS011;4276;49.354;6.804;2023-06-22T02:28:32;8.55;;;7.95;;
8478;SDS011;4276;49.354;6.804;2023-06-22T02:30:58;8.35;;;7.63;;
8478;SDS011;4276;49.354;6.804;2023-06-22T02:33:25;10.00;;;9.15;;
8478;SDS011;4276;49.354;6.804;2023-06-22T02:35:51;9.20;;;8.40;;
8478;SDS011;4276;49.354;6.804;2023-06-22T02:38:18;9.00;;;8.23;;
8478;SDS011;4276;49.354;6.804;2023-06-22T02:40:45;9.23;;;8.55;;
8478;SDS011;4276;49.354;6.804;2023-06-22T02:43:12;9.23;;;8.35;;
8478;SDS011;4276;49.354;6.804;2023-06-22T02:45:39;9.00;;;8.27;;
8478;SDS011;4276;49.354;6.804;2023-06-22T02:48:05;8.70;;;8.02;;
8478;SDS011;4276;49.354;6.804;2023-06-22T02:50:32;8.25;;;7.65;;
8478;SDS011;4276;49.354;6.804;2023-06-22T02:52:59;8.73;;;8.02;;
8478;SDS011;4276;49.354;6.804;2023-06-22T02:55:25;9.32;;;8.65;;
8478;SDS011;4276;49.354;6.804;2023-06-22T02:57:51;10.02;;;9.10;;
8478;SDS011;4276;49.354;6.804;2023-06-22T03:00:19;9.80;;;8.90;;
8478;SDS011;4276;49.354;6.804;2023-06-22T03:02:49;10.48;;;9.60;;
8478;SDS011;4276;49.354;6.804;2023-06-22T03:05:16;9.80;;;9.00;;
8478;SDS011;4276;49.354;6.804;2023-06-22T03:07:44;9.65;;;8.20;;
8478;SDS011;4276;49.354;6.804;2023-06-22T03:10:12;8.90;;;8.23;;
8478;SDS011;4276;49.354;6.804;2023-06-22T03:12:39;9.13;;;8.32;;
8478;SDS011;4276;49.354;6.804;2023-06-22T03:15:07;9.43;;;8.65;;
8478;SDS011;4276;49.354;6.804;2023-06-22T03:17:35;8.52;;;7.93;;
8478;SDS011;4276;49.354;6.804;2023-06-22T03:20:02;8.38;;;7.78;;
8478;SDS011;4276;49.354;6.804;2023-06-22T03:22:36;10.02;;;9.18;;
8478;SDS011;4276;49.354;6.804;2023-06-22T03:25:04;9.82;;;8.95;;
8478;SDS011;4276;49.354;6.804;2023-06-22T03:27:30;8.73;;;8.13;;
8478;SDS011;4276;49.354;6.804;2023-06-22T03:29:57;9.30;;;8.50;;
8478;SDS011;4276;49.354;6.804;2023-06-22T03:32:24;8.82;;;8.13;;
8478;SDS011;4276;49.354;6.804;2023-06-22T03:34:51;9.30;;;8.52;;
8478;SDS011;4276;49.354;6.804;2023-06-22T03:37:18;9.65;;;8.85;;
8478;SDS011;4276;49.354;6.804;2023-06-22T03:39:44;10.43;;;9.23;;
8478;SDS011;4276;49.354;6.804;2023-06-22T03:42:11;9.60;;;8.80;;
8478;SDS011;4276;49.354;6.804;2023-06-22T03:44:37;9.35;;;8.60;;
8478;SDS011;4276;49.354;6.804;2023-06-22T03:47:04;9.95;;;9.02;;
8478;SDS011;4276;49.354;6.804;2023-06-22T03:49:30;9.50;;;8.60;;
8478;SDS011;4276;49.354;6.804;2023-06-22T03:51:56;9.75;;;8.95;;
8478;SDS011;4276;49.354;6.804;2023-06-22T03:54:23;9.40;;;8.60;;
8478;SDS011;4276;49.354;6.804;2023-06-22T03:56:50;10.07;;;9.38;;
8478;SDS011;4276;49.354;6.804;2023-06-22T03:59:16;9.65;;;8.90;;
8478;SDS011;4276;49.354;6.804;2023-06-22T04:01:42;10.60;;;9.60;;
8478;SDS011;4276;49.354;6.804;2023-06-22T04:04:09;10.23;;;9.30;;
8478;SDS011;4276;49.354;6.804;2023-06-22T04:06:36;8.93;;;8.18;;
8478;SDS011;4276;49.354;6.804;2023-06-22T04:09:02;9.10;;;8.25;;
8478;SDS011;4276;49.354;6.804;2023-06-22T04:11:29;9.93;;;8.98;;
8478;SDS011;4276;49.354;6.804;2023-06-22T04:13:55;10.18;;;9.40;;
8478;SDS011;4276;49.354;6.804;2023-06-22T04:16:22;9.20;;;8.30;;
8478;SDS011;4276;49.354;6.804;2023-06-22T04:18:48;10.02;;;9.27;;
8478;SDS011;4276;49.354;6.804;2023-06-22T04:21:15;11.13;;;9.90;;
8478;SDS011;4276;49.354;6.804;2023-06-22T04:23:41;10.23;;;9.32;;
8478;SDS011;4276;49.354;6.804;2023-06-22T04:26:09;9.02;;;8.25;;
8478;SDS011;4276;49.354;6.804;2023-06-22T04:28:35;9.98;;;9.18;;
8478;SDS011;4276;49.354;6.804;2023-06-22T04:31:02;10.23;;;9.23;;
8478;SDS011;4276;49.354;6.804;2023-06-22T04:33:29;10.60;;;9.68;;
8478;SDS011;4276;49.354;6.804;2023-06-22T04:35:55;10.30;;;9.40;;
8478;SDS011;4276;49.354;6.804;2023-06-22T04:38:23;9.13;;;8.52;;
8478;SDS011;4276;49.354;6.804;2023-06-22T04:40:50;8.95;;;8.35;;
8478;SDS011;4276;49.354;6.804;2023-06-22T04:43:18;9.32;;;8.52;;
8478;SDS011;4276;49.354;6.804;2023-06-22T04:45:45;8.93;;;8.23;;
8478;SDS011;4276;49.354;6.804;2023-06-22T04:48:11;9.82;;;8.13;;
8478;SDS011;4276;49.354;6.804;2023-06-22T04:50:42;8.05;;;7.45;;
8478;SDS011;4276;49.354;6.804;2023-06-22T04:53:08;8.73;;;8.02;;
8478;SDS011;4276;49.354;6.804;2023-06-22T04:55:35;8.65;;;7.95;;
8478;SDS011;4276;49.354;6.804;2023-06-22T04:58:04;8.02;;;7.38;;
8478;SDS011;4276;49.354;6.804;2023-06-22T05:00:33;8.27;;;7.55;;
8478;SDS011;4276;49.354;6.804;2023-06-22T05:03:02;8.65;;;8.05;;
8478;SDS011;4276;49.354;6.804;2023-06-22T05:05:45;8.20;;;7.47;;
8478;SDS011;4276;49.354;6.804;2023-06-22T05:08:11;8.88;;;8.07;;
8478;SDS011;4276;49.354;6.804;2023-06-22T05:10:39;9.07;;;8.02;;
8478;SDS011;4276;49.354;6.804;2023-06-22T05:13:24;8.65;;;7.88;;
8478;SDS011;4276;49.354;6.804;2023-06-22T05:15:52;8.30;;;7.55;;
8478;SDS011;4276;49.354;6.804;2023-06-22T05:18:19;7.78;;;7.07;;
8478;SDS011;4276;49.354;6.804;2023-06-22T05:20:50;7.82;;;7.13;;
8478;SDS011;4276;49.354;6.804;2023-06-22T05:23:17;7.70;;;7.10;;
8478;SDS011;4276;49.354;6.804;2023-06-22T05:25:43;6.90;;;6.30;;
8478;SDS011;4276;49.354;6.804;2023-06-22T05:28:09;7.45;;;6.95;;
8478;SDS011;4276;49.354;6.804;2023-06-22T05:30:37;7.28;;;6.68;;
8478;SDS011;4276;49.354;6.804;2023-06-22T05:33:04;8.15;;;7.50;;
8478;SDS011;4276;49.354;6.804;2023-06-22T05:35:30;8.45;;;7.63;;
8478;SDS011;4276;49.354;6.804;2023-06-22T05:37:57;8.00;;;7.40;;
8478;SDS011;4276;49.354;6.804;2023-06-22T05:40:23;7.50;;;6.85;;
8478;SDS011;4276;49.354;6.804;2023-06-22T05:42:50;7.50;;;7.00;;
8478;SDS011;4276;49.354;6.804;2023-06-22T05:45:17;6.78;;;6.28;;
8478;SDS011;4276;49.354;6.804;2023-06-22T05:47:43;7.25;;;6.65;;
8478;SDS011;4276;49.354;6.804;2023-06-22T05:50:10;8.10;;;7.30;;
8478;SDS011;4276;49.354;6.804;2023-06-22T05:52:38;7.70;;;6.95;;
8478;SDS011;4276;49.354;6.804;2023-06-22T05:55:05;7.38;;;6.85;;
8478;SDS011;4276;49.354;6.804;2023-06-22T05:57:33;7.55;;;6.95;;
8478;SDS011;4276;49.354;6.804;2023-06-22T06:00:00;7.63;;;6.93;;
8478;SDS011;4276;49.354;6.804;2023-06-22T06:02:26;7.10;;;6.60;;
8478;SDS011;4276;49.354;6.804;2023-06-22T06:04:53;6.88;;;6.35;;
8478;SDS011;4276;49.354;6.804;2023-06-22T06:07:20;7.05;;;6.55;;
8478;SDS011;4276;49.354;6.804;2023-06-22T06:09:47;7.72;;;6.97;;
8478;SDS011;4276;49.354;6.804;2023-06-22T06:12:14;7.45;;;6.85;;
8478;SDS011;4276;49.354;6.804;2023-06-22T06:14:41;7.00;;;6.38;;
8478;SDS011;4276;49.354;6.804;2023-06-22T06:17:07;8.15;;;7.57;;
8478;SDS011;4276;49.354;6.804;2023-06-22T06:19:34;7.65;;;7.05;;
8478;SDS011;4276;49.354;6.804;2023-06-22T06:22:00;7.20;;;6.60;;
8478;SDS011;4276;49.354;6.804;2023-06-22T06:24:27;7.55;;;6.93;;
8478;SDS011;4276;49.354;6.804;2023-06-22T06:26:53;7.68;;;7.07;;
8478;SDS011;4276;49.354;6.804;2023-06-22T06:29:20;7.00;;;6.50;;
8478;SDS011;4276;49.354;6.804;2023-06-22T06:31:46;7.40;;;6.90;;
8478;SDS011;4276;49.354;6.804;2023-06-22T06:34:14;8.02;;;7.35;;
8478;SDS011;4276;49.354;6.804;2023-06-22T06:36:41;7.10;;;6.50;;
8478;SDS011;4276;49.354;6.804;2023-06-22T06:39:07;7.10;;;6.47;;
8478;SDS011;4276;49.354;6.804;2023-06-22T06:41:34;7.15;;;6.65;;
8478;SDS011;4276;49.354;6.804;2023-06-22T06:44:01;7.45;;;6.95;;
8478;SDS011;4276;49.354;6.804;2023-06-22T06:46:27;7.18;;;6.65;;
8478;SDS011;4276;49.354;6.804;2023-06-22T06:48:54;7.82;;;7.13;;
8478;SDS011;4276;49.354;6.804;2023-06-22T06:51:21;7.40;;;6.80;;
8478;SDS011;4276;49.354;6.804;2023-06-22T06:53:47;7.18;;;6.57;;
8478;SDS011;4276;49.354;6.804;2023-06-22T06:56:14;7.60;;;6.65;;
8478;SDS011;4276;49.354;6.804;2023-06-22T06:58:40;7.10;;;6.60;;
8478;SDS011;4276;49.354;6.804;2023-06-22T07:01:08;7.43;;;6.90;;
8478;SDS011;4276;49.354;6.804;2023-06-22T07:03:35;8.23;;;7.63;;
8478;SDS011;4276;49.354;6.804;2023-06-22T07:06:01;7.03;;;6.55;;
8478;SDS011;4276;49.354;6.804;2023-06-22T07:08:28;6.82;;;6.35;;
8478;SDS011;4276;49.354;6.804;2023-06-22T07:10:55;7.03;;;6.43;;
8478;SDS011;4276;49.354;6.804;2023-06-22T07:13:21;7.03;;;6.57;;
8478;SDS011;4276;49.354;6.804;2023-06-22T07:15:48;7.32;;;6.72;;
8478;SDS011;4276;49.354;6.804;2023-06-22T07:18:14;7.18;;;6.63;;
8478;SDS011;4276;49.354;6.804;2023-06-22T07:20:41;6.40;;;5.90;;
8478;SDS011;4276;49.354;6.804;2023-06-22T07:23:08;6.80;;;6.30;;
8478;SDS011;4276;49.354;6.804;2023-06-22T07:25:34;6.90;;;6.30;;
8478;SDS011;4276;49.354;6.804;2023-06-22T07:28:01;6.72;;;6.13;;
8478;SDS011;4276;49.354;6.804;2023-06-22T07:30:29;6.63;;;6.13;;
8478;SDS011;4276;49.354;6.804;2023-06-22T07:32:57;7.20;;;6.47;;
8478;SDS011;4276;49.354;6.804;2023-06-22T07:35:24;7.30;;;6.60;;
8478;SDS011;4276;49.354;6.804;2023-06-22T07:37:51;6.15;;;5.65;;
8478;SDS011;4276;49.354;6.804;2023-06-22T07:40:17;6.57;;;6.07;;
8478;SDS011;4276;49.354;6.804;2023-06-22T07:42:44;6.93;;;6.40;;
8478;SDS011;4276;49.354;6.804;2023-06-22T07:45:10;7.50;;;6.80;;
8478;SDS011;4276;49.354;6.804;2023-06-22T07:47:37;6.50;;;5.88;;
8478;SDS011;4276;49.354;6.804;2023-06-22T07:50:04;6.82;;;6.22;;
8478;SDS011;4276;49.354;6.804;2023-06-22T07:52:31;6.63;;;6.05;;
8478;SDS011;4276;49.354;6.804;2023-06-22T07:54:58;8.32;;;6.20;;
8478;SDS011;4276;49.354;6.804;2023-06-22T07:57:24;6.03;;;5.57;;
8478;SDS011;4276;49.354;6.804;2023-06-22T08:00:09;7.57;;;5.70;;
8478;SDS011;4276;49.354;6.804;2023-06-22T08:02:41;6.43;;;5.75;;
8478;SDS011;4276;49.354;6.804;2023-06-22T08:05:08;7.03;;;6.30;;
8478;SDS011;4276;49.354;6.804;2023-06-22T08:07:46;7.40;;;6.25;;
8478;SDS011;4276;49.354;6.804;2023-06-22T08:10:15;6.68;;;6.00;;
8478;SDS011;4276;49.354;6.804;2023-06-22T08:12:42;6.85;;;6.35;;
8478;SDS011;4276;49.354;6.804;2023-06-22T08:15:09;7.13;;;6.53;;
8478;SDS011;4276;49.354;6.804;2023-06-22T08:17:38;6.70;;;6.13;;
8478;SDS011;4276;49.354;6.804;2023-06-22T08:20:06;6.57;;;5.97;;
8478;SDS011;4276;49.354;6.804;2023-06-22T08:22:38;6.07;;;5.60;;
8478;SDS011;4276;49.354;6.804;2023-06-22T08:25:05;6.53;;;5.93;;
8478;SDS011;4276;49.354;6.804;2023-06-22T08:27:32;8.43;;;6.40;;
8478;SDS011;4276;49.354;6.804;2023-06-22T08:29:59;6.38;;;5.78;;
8478;SDS011;4276;49.354;6.804;2023-06-22T08:32:29;6.95;;;6.25;;
8478;SDS011;4276;49.354;6.804;2023-06-22T08:34:56;6.57;;;6.07;;
8478;SDS011;4276;49.354;6.804;2023-06-22T08:37:23;6.35;;;5.85;;
8478;SDS011;4276;49.354;6.804;2023-06-22T08:39:58;6.35;;;5.85;;
8478;SDS011;4276;49.354;6.804;2023-06-22T08:42:25;7.03;;;6.43;;
8478;SDS011;4276;49.354;6.804;2023-06-22T08:44:52;7.07;;;6.47;;
8478;SDS011;4276;49.354;6.804;2023-06-22T08:47:19;6.72;;;6.32;;
8478;SDS011;4276;49.354;6.804;2023-06-22T08:49:47;6.47;;;5.97;;
8478;SDS011;4276;49.354;6.804;2023-06-22T08:52:14;7.22;;;6.53;;
8478;SDS011;4276;49.354;6.804;2023-06-22T08:54:41;7.03;;;6.50;;
8478;SDS011;4276;49.354;6.804;2023-06-22T08:57:07;7.68;;;6.95;;
8478;SDS011;4276;49.354;6.804;2023-06-22T08:59:34;6.97;;;6.47;;
8478;SDS011;4276;49.354;6.804;2023-06-22T09:02:00;7.07;;;6.47;;
8478;SDS011;4276;49.354;6.804;2023-06-22T09:04:27;7.18;;;6.68;;
8478;SDS011;4276;49.354;6.804;2023-06-22T09:06:54;6.82;;;6.22;;
8478;SDS011;4276;49.354;6.804;2023-06-22T09:09:21;7.25;;;6.60;;
8478;SDS011;4276;49.354;6.804;2023-06-22T09:11:47;7.25;;;6.75;;
8478;SDS011;4276;49.354;6.804;2023-06-22T09:14:14;7.15;;;6.57;;
8478;SDS011;4276;49.354;6.804;2023-06-22T09:16:41;7.68;;;6.97;;
8478;SDS011;4276;49.354;6.804;2023-06-22T09:19:07;7.20;;;6.60;;
8478;SDS011;4276;49.354;6.804;2023-06-22T09:21:34;7.45;;;6.80;;
8478;SDS011;4276;49.354;6.804;2023-06-22T09:24:01;7.57;;;6.68;;
8478;SDS011;4276;49.354;6.804;2023-06-22T09:26:27;6.63;;;6.13;;
8478;SDS011;4276;49.354;6.804;2023-06-22T09:28:54;6.50;;;5.93;;
8478;SDS011;4276;49.354;6.804;2023-06-22T09:31:20;7.38;;;6.68;;
8478;SDS011;4276;49.354;6.804;2023-06-22T09:33:53;7.15;;;6.55;;
8478;SDS011;4276;49.354;6.804;2023-06-22T09:36:23;6.65;;;6.15;;
8478;SDS011;4276;49.354;6.804;2023-06-22T09:38:50;6.63;;;6.03;;
8478;SDS011;4276;49.354;6.804;2023-06-22T09:41:21;6.60;;;6.10;;
8478;SDS011;4276;49.354;6.804;2023-06-22T09:43:48;6.70;;;6.20;;
8478;SDS011;4276;49.354;6.804;2023-06-22T09:46:15;6.28;;;5.78;;
8478;SDS011;4276;49.354;6.804;2023-06-22T09:48:42;6.50;;;5.90;;
8478;SDS011;4276;49.354;6.804;2023-06-22T09:51:09;7.80;;;6.30;;
8478;SDS011;4276;49.354;6.804;2023-06-22T09:53:35;6.78;;;6.18;;
8478;SDS011;4276;49.354;6.804;2023-06-22T09:56:03;6.55;;;5.95;;
8478;SDS011;4276;49.354;6.804;2023-06-22T09:58:30;6.72;;;6.22;;
8478;SDS011;4276;49.354;6.804;2023-06-22T10:00:56;6.95;;;6.35;;
8478;SDS011;4276;49.354;6.804;2023-06-22T10:03:23;6.88;;;6.25;;
8478;SDS011;4276;49.354;6.804;2023-06-22T10:05:49;6.68;;;6.05;;
8478;SDS011;4276;49.354;6.804;2023-06-22T10:08:16;6.80;;;6.15;;
8478;SDS011;4276;49.354;6.804;2023-06-22T10:10:42;7.00;;;6.40;;
8478;SDS011;4276;49.354;6.804;2023-06-22T10:13:09;6.88;;;6.38;;
8478;SDS011;4276;49.354;6.804;2023-06-22T10:15:37;7.53;;;6.82;;
8478;SDS011;4276;49.354;6.804;2023-06-22T10:18:04;6.78;;;6.28;;
8478;SDS011;4276;49.354;6.804;2023-06-22T10:20:31;6.60;;;6.10;;
8478;SDS011;4276;49.354;6.804;2023-06-22T10:22:57;6.30;;;5.88;;
8478;SDS011;4276;49.354;6.804;2023-06-22T10:25:26;7.30;;;6.60;;
8478;SDS011;4276;49.354;6.804;2023-06-22T10:27:53;6.80;;;6.20;;
8478;SDS011;4276;49.354;6.804;2023-06-22T10:30:19;8.43;;;6.55;;
8478;SDS011;4276;49.354;6.804;2023-06-22T10:32:46;6.28;;;5.82;;
8478;SDS011;4276;49.354;6.804;2023-06-22T10:35:12;7.13;;;6.00;;
8478;SDS011;4276;49.354;6.804;2023-06-22T10:37:45;7.35;;;6.45;;
8478;SDS011;4276;49.354;6.804;2023-06-22T10:40:12;7.00;;;6.38;;
8478;SDS011;4276;49.354;6.804;2023-06-22T10:42:40;7.18;;;6.35;;
8478;SDS011;4276;49.354;6.804;2023-06-22T10:45:07;7.00;;;6.30;;
8478;SDS011;4276;49.354;6.804;2023-06-22T10:47:35;6.53;;;6.03;;
8478;SDS011;4276;49.354;6.804;2023-06-22T10:50:02;6.68;;;6.07;;
8478;SDS011;4276;49.354;6.804;2023-06-22T10:52:29;7.00;;;6.30;;
8478;SDS011;4276;49.354;6.804;2023-06-22T10:54:55;6.53;;;5.93;;
8478;SDS011;4276;49.354;6.804;2023-06-22T10:57:22;7.25;;;6.07;;
8478;SDS011;4276;49.354;6.804;2023-06-22T10:59:48;6.07;;;5.47;;
8478;SDS011;4276;49.354;6.804;2023-06-22T11:02:15;6.15;;;5.55;;
8478;SDS011;4276;49.354;6.804;2023-06-22T11:04:42;5.72;;;5.20;;
8478;SDS011;4276;49.354;6.804;2023-06-22T11:07:09;6.50;;;5.90;;
8478;SDS011;4276;49.354;6.804;2023-06-22T11:09:35;6.20;;;5.70;;
8478;SDS011;4276;49.354;6.804;2023-06-22T11:12:02;6.45;;;5.82;;
8478;SDS011;4276;49.354;6.804;2023-06-22T11:14:29;7.82;;;5.80;;
8478;SDS011;4276;49.354;6.804;2023-06-22T11:16:55;8.10;;;6.35;;
8478;SDS011;4276;49.354;6.804;2023-06-22T11:19:22;6.40;;;5.93;;
8478;SDS011;4276;49.354;6.804;2023-06-22T11:21:48;7.20;;;6.22;;
8478;SDS011;4276;49.354;6.804;2023-06-22T11:24:15;6.00;;;5.40;;
8478;SDS011;4276;49.354;6.804;2023-06-22T11:26:42;6.93;;;6.22;;
8478;SDS011;4276;49.354;6.804;2023-06-22T11:29:09;6.97;;;6.10;;
8478;SDS011;4276;49.354;6.804;2023-06-22T11:31:49;5.68;;;5.13;;
8478;SDS011;4276;49.354;6.804;2023-06-22T11:34:15;8.05;;;5.78;;
8478;SDS011;4276;49.354;6.804;2023-06-22T11:36:42;7.10;;;5.97;;
8478;SDS011;4276;49.354;6.804;2023-06-22T11:39:08;6.55;;;5.88;;
8478;SDS011;4276;49.354;6.804;2023-06-22T11:41:36;6.30;;;5.70;;
8478;SDS011;4276;49.354;6.804;2023-06-22T11:44:02;8.40;;;6.13;;
8478;SDS011;4276;49.354;6.804;2023-06-22T11:46:30;7.03;;;5.88;;
8478;SDS011;4276;49.354;6.804;2023-06-22T11:48:58;7.07;;;6.03;;
8478;SDS011;4276;49.354;6.804;2023-06-22T11:51:24;6.97;;;5.78;;
8478;SDS011;4276;49.354;6.804;2023-06-22T11:53:51;8.75;;;5.80;;
8478;SDS011;4276;49.354;6.804;2023-06-22T11:56:17;6.47;;;5.45;;
8478;SDS011;4276;49.354;6.804;2023-06-22T11:58:44;6.65;;;5.47;;
8478;SDS011;4276;49.354;6.804;2023-06-22T12:01:10;8.05;;;5.57;;
8478;SDS011;4276;49.354;6.804;2023-06-22T12:03:38;7.10;;;5.43;;
8478;SDS011;4276;49.354;6.804;2023-06-22T12:06:05;9.85;;;5.60;;
8478;SDS011;4276;49.354;6.804;2023-06-22T12:08:31;9.23;;;5.72;;
8478;SDS011;4276;49.354;6.804;2023-06-22T12:10:58;7.70;;;5.32;;
8478;SDS011;4276;49.354;6.804;2023-06-22T12:13:24;7.68;;;5.50;;
8478;SDS011;4276;49.354;6.804;2023-06-22T12:15:51;9.43;;;5.28;;
8478;SDS011;4276;49.354;6.804;2023-06-22T12:18:18;8.95;;;5.68;;
8478;SDS011;4276;49.354;6.804;2023-06-22T12:20:47;7.75;;;5.75;;
8478;SDS011;4276;49.354;6.804;2023-06-22T12:23:14;9.85;;;6.28;;
8478;SDS011;4276;49.354;6.804;2023-06-22T12:25:41;8.95;;;5.82;;
8478;SDS011;4276;49.354;6.804;2023-06-22T12:28:07;7.82;;;5.50;;
8478;SDS011;4276;49.354;6.804;2023-06-22T12:30:34;9.68;;;5.95;;
8478;SDS011;4276;49.354;6.804;2023-06-22T12:33:00;7.95;;;5.35;;
8478;SDS011;4276;49.354;6.804;2023-06-22T12:35:27;7.80;;;5.38;;
8478;SDS011;4276;49.354;6.804;2023-06-22T12:37:53;8.35;;;5.60;;
8478;SDS011;4276;49.354;6.804;2023-06-22T12:40:20;10.27;;;5.50;;
8478;SDS011;4276;49.354;6.804;2023-06-22T12:42:46;8.82;;;4.88;;
8478;SDS011;4276;49.354;6.804;2023-06-22T12:45:13;9.90;;;4.97;;
8478;SDS011;4276;49.354;6.804;2023-06-22T12:47:39;8.68;;;5.07;;
8478;SDS011;4276;49.354;6.804;2023-06-22T12:50:06;8.07;;;5.10;;
8478;SDS011;4276;49.354;6.804;2023-06-22T12:52:33;10.77;;;4.93;;
8478;SDS011;4276;49.354;6.804;2023-06-22T12:55:02;6.97;;;4.60;;
8478;SDS011;4276;49.354;6.804;2023-06-22T12:57:28;10.50;;;5.03;;
8478;SDS011;4276;49.354;6.804;2023-06-22T12:59:55;10.18;;;5.47;;
8478;SDS011;4276;49.354;6.804;2023-06-22T13:02:21;10.32;;;5.07;;
8478;SDS011;4276;49.354;6.804;2023-06-22T13:04:48;14.65;;;5.30;;
8478;SDS011;4276;49.354;6.804;2023-06-22T13:07:14;14.15;;;5.10;;
8478;SDS011;4276;49.354;6.804;2023-06-22T13:09:49;9.77;;;4.75;;
8478;SDS011;4276;49.354;6.804;2023-06-22T13:12:19;10.27;;;4.53;;
8478;SDS011;4276;49.354;6.804;2023-06-22T13:14:47;10.95;;;4.70;;
8478;SDS011;4276;49.354;6.804;2023-06-22T13:17:14;8.27;;;4.43;;
8478;SDS011;4276;49.354;6.804;2023-06-22T13:19:40;9.85;;;4.55;;
8478;SDS011;4276;49.354;6.804;2023-06-22T13:24:52;7.10;;;4.13;;
8478;SDS011;4276;49.354;6.804;2023-06-22T13:27:21;8.98;;;3.78;;
8478;SDS011;4276;49.354;6.804;2023-06-22T13:29:47;11.35;;;3.58;;
8478;SDS011;4276;49.354;6.804;2023-06-22T13:32:14;7.13;;;3.38;;
8478;SDS011;4276;49.354;6.804;2023-06-22T13:34:40;5.35;;;3.22;;
8478;SDS011;4276;49.354;6.804;2023-06-22T13:37:07;6.07;;;3.45;;
8478;SDS011;4276;49.354;6.804;2023-06-22T13:39:34;6.00;;;3.67;;
8478;SDS011;4276;49.354;6.804;2023-06-22T13:42:00;5.85;;;4.00;;
8478;SDS011;4276;49.354;6.804;2023-06-22T13:44:27;6.15;;;3.90;;
8478;SDS011;4276;49.354;6.804;2023-06-22T13:46:55;7.45;;;3.95;;
8478;SDS011;4276;49.354;6.804;2023-06-22T13:49:21;9.45;;;4.10;;
8478;SDS011;4276;49.354;6.804;2023-06-22T13:51:48;7.00;;;3.70;;
8478;SDS011;4276;49.354;6.804;2023-06-22T13:54:14;9.20;;;3.50;;
8478;SDS011;4276;49.354;6.804;2023-06-22T13:56:55;12.18;;;3.67;;
8478;SDS011;4276;49.354;6.804;2023-06-22T13:59:21;9.73;;;3.75;;
8478;SDS011;4276;49.354;6.804;2023-06-22T14:01:48;11.30;;;4.25;;
8478;SDS011;4276;49.354;6.804;2023-06-22T14:04:14;7.90;;;3.95;;
8478;SDS011;4276;49.354;6.804;2023-06-22T14:06:41;9.55;;;3.95;;
8478;SDS011;4276;49.354;6.804;2023-06-22T14:09:08;8.63;;;3.78;;
8478;SDS011;4276;49.354;6.804;2023-06-22T14:11:34;9.00;;;3.83;;
8478;SDS011;4276;49.354;6.804;2023-06-22T14:14:01;7.88;;;4.25;;
8478;SDS011;4276;49.354;6.804;2023-06-22T14:16:27;8.60;;;3.78;;
8478;SDS011;4276;49.354;6.804;2023-06-22T14:18:54;11.15;;;3.97;;
8478;SDS011;4276;49.354;6.804;2023-06-22T14:21:23;9.73;;;4.25;;
8478;SDS011;4276;49.354;6.804;2023-06-22T14:23:49;10.07;;;3.47;;
8478;SDS011;4276;49.354;6.804;2023-06-22T14:26:16;8.02;;;3.55;;
8478;SDS011;4276;49.354;6.804;2023-06-22T14:28:46;9.35;;;4.35;;
8478;SDS011;4276;49.354;6.804;2023-06-22T14:31:14;8.52;;;3.60;;
8478;SDS011;4276;49.354;6.804;2023-06-22T14:33:44;8.57;;;3.72;;
8478;SDS011;4276;49.354;6.804;2023-06-22T14:36:15;5.40;;;3.45;;
8478;SDS011;4276;49.354;6.804;2023-06-22T14:38:43;8.02;;;4.00;;
8478;SDS011;4276;49.354;6.804;2023-06-22T14:41:10;6.15;;;3.47;;
8478;SDS011;4276;49.354;6.804;2023-06-22T14:43:44;8.65;;;4.15;;
8478;SDS011;4276;49.354;6.804;2023-06-22T14:46:12;7.90;;;4.05;;
8478;SDS011;4276;49.354;6.804;2023-06-22T14:48:40;5.10;;;3.50;;
8478;SDS011;4276;49.354;6.804;2023-06-22T14:51:07;6.82;;;3.60;;
8478;SDS011;4276;49.354;6.804;2023-06-22T14:53:34;5.88;;;3.63;;
8478;SDS011;4276;49.354;6.804;2023-06-22T14:56:01;5.55;;;3.20;;
8478;SDS011;4276;49.354;6.804;2023-06-22T14:58:29;5.22;;;3.30;;
8478;SDS011;4276;49.354;6.804;2023-06-22T15:01:00;5.43;;;3.25;;
8478;SDS011;4276;49.354;6.804;2023-06-22T15:03:26;6.20;;;3.20;;
8478;SDS011;4276;49.354;6.804;2023-06-22T15:05:55;4.07;;;2.85;;
8478;SDS011;4276;49.354;6.804;2023-06-22T15:08:22;4.10;;;2.90;;
8478;SDS011;4276;49.354;6.804;2023-06-22T15:10:49;4.70;;;3.10;;
8478;SDS011;4276;49.354;6.804;2023-06-22T15:13:15;7.28;;;3.17;;
8478;SDS011;4276;49.354;6.804;2023-06-22T15:15:46;3.30;;;2.70;;
8478;SDS011;4276;49.354;6.804;2023-06-22T15:18:16;3.38;;;3.05;;
8478;SDS011;4276;49.354;6.804;2023-06-22T15:20:43;17.52;;;15.63;;
8478;SDS011;4276;49.354;6.804;2023-06-22T15:23:12;8.20;;;6.70;;
8478;SDS011;4276;49.354;6.804;2023-06-22T15:25:39;12.93;;;8.90;;